KPRX

Cox Field Airport

Paris, Texas, USA
METAR KPRX 200056Z AUTO 16008KT 10SM OVC022 10/01 A3008 RMK AO2 SLP206 T01000011
Observed Flight Rules
Jan-20 @ 00:56 UTC (24 minutes ago) Marginal Visual Flight Rules
Wind Visibility Clouds
160° at 8 knots 10 miles
  • Overcast at 2,200' AGL
Temperatures Readings
Current 10°C / 50°F
Dewpoint 1°C / 34°F
Humidity 54%
Altimeter 30.08" Hg
Pressure 1020.6 hPa
Elevation 167
METAR KPRX 200056Z AUTO 16008KT 10SM OVC022 10/01 A3008 RMK AO2 SLP206 T01000011
Observed Flight Rules
Jan-20 @ 00:56 UTC
(24 minutes ago)
MVFR
Wind Visibility
160° at 8 knots 10 miles
Clouds
  • Overcast at 2,200' AGL
Temperature Dewpoint
10°C / 50°F 1°C / 34°F
Humidity Altimeter Pressure
54% 30.08" Hg 1020.6 hPa